Time;durP1;ratioP1;P1;durP2;ratioP2;P2;SDS_P1;SDS_P2;PMS_P1;PMS_P2;Temp;Humidity;BMP_temperature;BMP_pressure;BME280_temperature;BME280_humidity;BME280_pressure;Samples;Min_cycle;Max_cycle;Signal;HPM_P1;HPM_P2
2021/09/28 00:00:34;;;;;;;2.30;0.80;;;;;;;21.91;53.48;102075.25;5013578;28;20385;-63
2021/09/28 00:02:59;;;;;;;2.63;0.82;;;;;;;21.90;53.30;102076.19;5013005;28;20033;-65
2021/09/28 00:05:25;;;;;;;3.13;0.93;;;;;;;21.88;53.35;102070.19;5013175;28;20550;-64
2021/09/28 00:07:50;;;;;;;2.50;0.80;;;;;;;21.85;53.30;102076.56;5013241;28;20033;-64
2021/09/28 00:10:17;;;;;;;1.83;0.70;;;;;;;21.86;53.49;102077.41;5013446;28;20557;-63
2021/09/28 00:12:42;;;;;;;3.15;0.80;;;;;;;21.84;53.38;102081.97;5012856;28;20077;-64
2021/09/28 00:15:10;;;;;;;2.90;0.73;;;;;;;21.82;53.38;102076.78;5013081;28;20503;-64
2021/09/28 00:17:39;;;;;;;2.75;0.90;;;;;;;21.82;53.51;102078.59;5012946;28;20037;-63
2021/09/28 00:20:06;;;;;;;5.05;0.90;;;;;;;21.82;53.25;102087.41;5012614;28;20022;-63
2021/09/28 00:22:32;;;;;;;1.98;0.80;;;;;;;21.81;53.33;102083.09;5013440;28;20034;-64
2021/09/28 00:24:57;;;;;;;2.00;0.60;;;;;;;21.83;53.40;102085.63;5012747;28;20384;-64
2021/09/28 00:27:23;;;;;;;3.20;0.82;;;;;;;21.80;53.31;102092.00;5013540;28;20054;-63
2021/09/28 00:29:48;;;;;;;2.08;0.90;;;;;;;21.79;53.79;102090.28;5012678;28;20025;-64
2021/09/28 00:32:13;;;;;;;3.40;0.80;;;;;;;21.79;53.20;102098.25;5012945;28;20026;-64
2021/09/28 00:34:40;;;;;;;2.10;0.83;;;;;;;21.78;53.16;102093.06;5012925;28;20719;-65
2021/09/28 00:37:06;;;;;;;3.22;0.95;;;;;;;21.78;53.23;102096.59;5012778;28;20287;-65
2021/09/28 00:39:32;;;;;;;1.67;0.70;;;;;;;21.79;53.15;102100.91;5013417;28;20029;-64
2021/09/28 00:41:57;;;;;;;4.57;0.80;;;;;;;21.79;53.27;102100.91;5012324;28;20152;-65
2021/09/28 00:44:37;;;;;;;3.05;0.90;;;;;;;21.79;53.15;102097.41;5013365;28;20030;-64
2021/09/28 00:47:07;;;;;;;2.08;0.82;;;;;;;21.79;53.09;102110.69;5012613;28;20034;-64
2021/09/28 00:49:32;;;;;;;2.65;1.00;;;;;;;21.78;53.20;102101.03;5011836;28;20041;-64
2021/09/28 00:51:58;;;;;;;3.28;1.00;;;;;;;21.78;52.89;102101.03;5012478;28;20022;-64
2021/09/28 00:54:23;;;;;;;2.35;0.73;;;;;;;21.76;53.21;102105.63;5012387;28;20401;-64
2021/09/28 00:56:49;;;;;;;2.88;0.93;;;;;;;21.76;53.09;102106.44;5012573;28;20038;-65
2021/09/28 00:59:14;;;;;;;2.83;0.90;;;;;;;21.74;53.06;102101.25;5012888;28;20025;-65
2021/09/28 01:01:40;;;;;;;3.20;0.88;;;;;;;21.72;53.07;102100.53;5012471;28;20030;-64
2021/09/28 01:04:06;;;;;;;3.55;0.88;;;;;;;21.72;52.87;102100.53;5012615;28;20018;-64
2021/09/28 01:06:31;;;;;;;3.08;0.90;;;;;;;21.72;52.88;102103.19;5012661;28;20525;-64
2021/09/28 01:08:56;;;;;;;3.20;1.00;;;;;;;21.73;52.93;102106.72;5011926;28;20483;-64
2021/09/28 01:11:22;;;;;;;2.40;0.80;;;;;;;21.71;53.00;102100.66;5012704;28;20635;-64
2021/09/28 01:13:50;;;;;;;2.13;0.77;;;;;;;21.72;52.88;102105.00;5012236;28;20267;-64
2021/09/28 01:16:15;;;;;;;1.77;0.70;;;;;;;21.70;52.62;102104.31;5012403;28;20103;-63
2021/09/28 01:18:42;;;;;;;3.17;0.90;;;;;;;21.70;52.60;102104.31;5012686;28;20034;-63
2021/09/28 01:21:11;;;;;;;2.85;0.73;;;;;;;21.70;52.83;102104.31;5012119;28;20283;-63
2021/09/28 01:23:44;;;;;;;2.58;0.80;;;;;;;21.70;52.92;102113.09;5012094;28;20117;-64
2021/09/28 01:26:10;;;;;;;2.13;0.90;;;;;;;21.69;52.74;102114.03;5012261;28;20555;-64
2021/09/28 01:28:39;;;;;;;1.95;0.70;;;;;;;21.69;52.66;102113.22;5012247;28;20034;-65
2021/09/28 01:31:04;;;;;;;2.28;0.80;;;;;;;21.68;52.89;102115.03;5011725;28;20042;-64
2021/09/28 01:33:29;;;;;;;3.42;0.88;;;;;;;21.66;52.86;102113.44;5012578;28;20022;-65
2021/09/28 01:35:55;;;;;;;3.55;1.10;;;;;;;21.66;52.78;102111.63;5012077;28;20057;-64
2021/09/28 01:38:20;;;;;;;3.08;0.75;;;;;;;21.68;52.57;102114.16;5011933;28;20038;-65
2021/09/28 01:40:45;;;;;;;2.63;0.88;;;;;;;21.68;52.32;102108.84;5012476;28;20048;-64
2021/09/28 01:43:13;;;;;;;3.22;0.73;;;;;;;21.68;52.37;102109.72;5011797;28;20030;-64
2021/09/28 01:45:39;;;;;;;3.90;0.80;;;;;;;21.68;52.41;102114.16;5012017;28;20029;-64
2021/09/28 01:48:07;;;;;;;2.58;0.88;;;;;;;21.68;52.36;102114.16;5012027;28;20030;-64
2021/09/28 01:50:37;;;;;;;3.72;0.88;;;;;;;21.66;52.49;102111.63;5011722;28;20050;-64
2021/09/28 01:53:03;;;;;;;2.63;0.90;;;;;;;21.66;52.35;102116.09;5012082;28;20041;-64
2021/09/28 01:55:32;;;;;;;1.60;0.73;;;;;;;21.63;52.25;102114.50;5012165;28;20025;-64
2021/09/28 01:57:58;;;;;;;3.28;1.10;;;;;;;21.63;52.14;102119.81;5013736;28;20121;-64
2021/09/28 02:00:25;;;;;;;2.72;0.90;;;;;;;21.65;52.56;102125.00;5016112;28;20026;-65
2021/09/28 02:02:51;;;;;;;3.22;1.08;;;;;;;21.63;52.69;102124.28;5015594;28;20050;-64
2021/09/28 02:05:16;;;;;;;4.22;1.10;;;;;;;21.62;52.24;102119.94;5015160;28;20504;-64
2021/09/28 02:07:44;;;;;;;1.70;0.68;;;;;;;21.63;52.31;102124.28;5015964;28;20105;-65
2021/09/28 02:10:11;;;;;;;2.35;0.80;;;;;;;21.62;52.18;102126.09;5015059;28;20033;-65
2021/09/28 02:12:37;;;;;;;1.63;0.70;;;;;;;21.63;52.23;102121.63;5015255;28;20042;-64
2021/09/28 02:15:02;;;;;;;3.17;0.80;;;;;;;21.61;51.99;102121.75;5015173;28;20022;-64
2021/09/28 02:17:28;;;;;;;2.40;0.90;;;;;;;21.60;52.06;102125.34;5015404;28;20073;-64
2021/09/28 02:19:59;;;;;;;3.08;0.82;;;;;;;21.60;52.18;102128.00;5014550;28;20480;-64
2021/09/28 02:22:24;;;;;;;2.33;0.70;;;;;;;21.60;52.26;102121.88;5015343;28;20064;-64
2021/09/28 02:24:50;;;;;;;3.10;0.90;;;;;;;21.59;52.28;102125.47;5014680;28;20065;-64
2021/09/28 02:27:15;;;;;;;2.08;0.90;;;;;;;21.58;52.12;102124.63;5014884;28;20026;-64
2021/09/28 02:29:41;;;;;;;2.53;0.75;;;;;;;21.56;52.09;102122.09;5015310;28;20116;-64
2021/09/28 02:32:06;;;;;;;2.45;0.82;;;;;;;21.55;52.16;102123.06;5014698;28;20646;-65
2021/09/28 02:34:35;;;;;;;3.88;0.90;;;;;;;21.54;52.03;102124.03;5014727;28;20060;-64
2021/09/28 02:37:01;;;;;;;2.83;1.02;;;;;;;21.55;52.05;102130.16;5014793;28;20490;-64
2021/09/28 02:39:26;;;;;;;4.75;1.00;;;;;;;21.55;51.85;102132.81;5014880;28;20650;-63
2021/09/28 02:41:52;;;;;;;3.97;0.90;;;;;;;21.54;51.99;102131.16;5014428;28;20105;-64
2021/09/28 02:44:17;;;;;;;2.28;0.80;;;;;;;21.55;52.15;102133.69;5014892;28;20026;-63
2021/09/28 02:46:48;;;;;;;2.87;1.00;;;;;;;21.54;51.96;102132.00;5014855;28;20156;-64
2021/09/28 02:49:14;;;;;;;2.22;0.70;;;;;;;21.54;51.89;102132.00;5014809;28;20298;-63
2021/09/28 02:51:40;;;;;;;2.42;0.98;;;;;;;21.54;52.02;102139.09;5014506;28;20038;-64
2021/09/28 02:54:05;;;;;;;2.13;0.80;;;;;;;21.54;51.99;102139.09;5014017;28;20033;-64
2021/09/28 02:56:31;;;;;;;3.50;0.90;;;;;;;21.53;51.88;102142.72;5015011;28;20034;-64
2021/09/28 02:58:56;;;;;;;3.60;0.90;;;;;;;21.52;51.91;102148.97;5014212;28;20028;-64
2021/09/28 03:01:21;;;;;;;1.38;0.70;;;;;;;21.51;51.91;102152.59;5014348;28;20045;-64
2021/09/28 03:03:47;;;;;;;3.85;0.90;;;;;;;21.48;51.94;102148.34;5014665;28;20034;-64
2021/09/28 03:06:12;;;;;;;4.25;1.05;;;;;;;21.49;51.91;102157.16;5014226;28;20030;-64
2021/09/28 03:08:37;;;;;;;4.07;0.80;;;;;;;21.50;51.65;102153.56;5013987;28;20049;-64
2021/09/28 03:11:02;;;;;;;3.08;0.98;;;;;;;21.49;51.94;102157.16;5014341;28;20033;-64
2021/09/28 03:13:37;;;;;;;3.45;1.10;;;;;;;21.49;51.71;102151.84;5014390;28;20034;-64
2021/09/28 03:16:03;;;;;;;3.72;1.00;;;;;;;21.53;51.43;102155.97;5013472;28;20032;-65
2021/09/28 03:18:28;;;;;;;3.28;0.77;;;;;;;21.49;51.86;102147.41;5014207;28;20105;-64
2021/09/28 03:20:53;;;;;;;2.55;0.70;;;;;;;21.50;51.78;102150.91;5013761;28;20034;-64
2021/09/28 03:23:19;;;;;;;1.90;0.70;;;;;;;21.50;51.69;102153.56;5013818;28;20057;-64
2021/09/28 03:25:45;;;;;;;3.00;0.88;;;;;;;21.48;51.68;102147.50;5014164;28;20033;-64
2021/09/28 03:28:11;;;;;;;1.85;0.70;;;;;;;21.47;51.73;102148.44;5013763;28;20091;-64
2021/09/28 03:30:43;;;;;;;2.72;0.80;;;;;;;21.48;51.63;102145.72;5013657;28;20117;-64
2021/09/28 03:33:08;;;;;;;3.33;0.85;;;;;;;21.46;51.66;102152.03;5013740;28;20531;-64
2021/09/28 03:35:34;;;;;;;2.17;0.90;;;;;;;21.47;51.57;102157.22;5013886;28;20026;-64
2021/09/28 03:37:59;;;;;;;2.25;0.65;;;;;;;21.48;51.30;102147.50;5013166;28;20041;-64
2021/09/28 03:40:26;;;;;;;2.65;0.77;;;;;;;21.48;51.36;102150.16;5013617;28;20033;-64
2021/09/28 03:42:51;;;;;;;3.03;0.95;;;;;;;21.46;51.41;102149.38;5013733;28;20084;-64
2021/09/28 03:45:17;;;;;;;2.13;0.70;;;;;;;21.46;51.42;102146.75;5013532;28;20053;-65
2021/09/28 03:47:42;;;;;;;2.70;0.90;;;;;;;21.44;51.38;102144.19;5013530;28;20458;-64
2021/09/28 03:50:07;;;;;;;2.83;0.77;;;;;;;21.44;51.54;102143.38;5012515;28;20045;-65
2021/09/28 03:52:34;;;;;;;2.50;0.93;;;;;;;21.42;51.45;102147.94;5014029;28;20299;-65
2021/09/28 03:54:59;;;;;;;2.05;0.70;;;;;;;21.42;51.49;102153.25;5013304;28;20061;-63
2021/09/28 03:57:25;;;;;;;3.30;1.05;;;;;;;21.39;51.55;102149.00;5013217;28;20029;-63
2021/09/28 03:59:51;;;;;;;2.83;0.88;;;;;;;21.40;51.46;102157.84;5013412;28;20152;-63
2021/09/28 04:02:16;;;;;;;3.03;0.85;;;;;;;21.40;51.40;102161.31;5013467;28;20449;-64
2021/09/28 04:04:41;;;;;;;2.73;0.73;;;;;;;21.39;51.40;102164.94;5013013;28;20080;-63
2021/09/28 04:07:09;;;;;;;2.25;0.70;;;;;;;21.38;51.38;102160.59;5013464;28;20294;-64
2021/09/28 04:09:35;;;;;;;3.15;0.90;;;;;;;21.36;51.15;102158.06;5013430;28;20126;-63
2021/09/28 04:12:00;;;;;;;3.00;0.70;;;;;;;21.36;51.32;102162.50;5012730;28;20101;-64
2021/09/28 04:14:26;;;;;;;2.90;0.80;;;;;;;21.34;51.38;102159.97;5013471;28;20271;-64
2021/09/28 04:16:51;;;;;;;1.15;0.57;;;;;;;21.34;51.16;102164.44;5012813;28;20061;-63
2021/09/28 04:19:17;;;;;;;2.47;1.00;;;;;;;21.34;51.21;102167.91;5012801;28;20058;-63
2021/09/28 04:21:43;;;;;;;3.10;0.90;;;;;;;21.33;51.27;102163.59;5013093;28;20299;-64
2021/09/28 04:24:10;;;;;;;2.78;0.70;;;;;;;21.34;51.12;102161.78;5012995;28;20034;-64
2021/09/28 04:26:36;;;;;;;2.83;0.73;;;;;;;21.34;51.09;102159.13;5012809;28;20022;-64
2021/09/28 04:29:01;;;;;;;2.78;0.90;;;;;;;21.35;51.26;102166.13;5012922;28;20363;-64
2021/09/28 04:31:27;;;;;;;2.00;0.77;;;;;;;21.33;51.29;102160.94;5012930;28;20037;-64
2021/09/28 04:33:52;;;;;;;1.60;0.50;;;;;;;21.32;51.09;102161.88;5012043;28;20033;-64
2021/09/28 04:36:18;;;;;;;4.63;1.17;;;;;;;21.33;51.09;102163.59;5013161;28;20032;-64
2021/09/28 04:38:43;;;;;;;4.00;1.20;;;;;;;21.34;51.04;102164.44;5013038;28;20045;-64
2021/09/28 04:41:10;;;;;;;2.83;0.83;;;;;;;21.33;50.87;102165.38;5012109;28;20022;-64
2021/09/28 04:43:35;;;;;;;2.47;0.70;;;;;;;21.33;50.97;102173.34;5012846;28;20280;-65
2021/09/28 04:46:01;;;;;;;2.65;0.80;;;;;;;21.32;50.89;102164.53;5012655;28;20022;-65
2021/09/28 04:48:26;;;;;;;2.65;0.80;;;;;;;21.32;50.88;102171.66;5012235;28;20166;-63
2021/09/28 04:50:53;;;;;;;2.75;1.10;;;;;;;21.30;50.88;102177.06;5012039;28;20054;-64
2021/09/28 04:53:22;;;;;;;2.72;0.70;;;;;;;21.29;50.92;102185.97;5012688;28;20525;-64
2021/09/28 04:55:48;;;;;;;2.80;0.80;;;;;;;21.28;50.95;102175.47;5012535;28;20029;-63
2021/09/28 04:58:13;;;;;;;3.25;0.95;;;;;;;21.28;50.91;102178.13;5012427;28;20393;-64
2021/09/28 05:00:40;;;;;;;2.38;0.80;;;;;;;21.28;50.88;102180.78;5012068;28;20030;-65
2021/09/28 05:03:08;;;;;;;2.17;0.77;;;;;;;21.27;51.02;102179.94;5012230;28;20113;-64
2021/09/28 05:05:33;;;;;;;1.48;0.70;;;;;;;21.27;50.86;102171.13;5012685;28;20034;-64
2021/09/28 05:07:59;;;;;;;2.65;0.85;;;;;;;21.28;50.79;102175.47;5012033;28;20038;-64
2021/09/28 05:10:24;;;;;;;2.00;0.70;;;;;;;21.27;50.89;102169.34;5012586;28;20061;-65
2021/09/28 05:12:49;;;;;;;1.98;0.82;;;;;;;21.27;50.81;102173.78;5012132;28;20061;-63
2021/09/28 05:15:14;;;;;;;2.43;0.67;;;;;;;21.26;50.74;102174.75;5012036;28;20367;-64
2021/09/28 05:17:40;;;;;;;2.53;0.70;;;;;;;21.25;50.79;102173.91;5012423;28;20317;-64
2021/09/28 05:20:06;;;;;;;1.92;0.60;;;;;;;21.26;50.90;102172.09;5012029;28;20477;-65
2021/09/28 05:22:32;;;;;;;2.83;0.80;;;;;;;21.25;50.66;102175.72;5012107;28;20030;-63
2021/09/28 05:24:57;;;;;;;2.05;0.73;;;;;;;21.23;50.75;102181.13;5012097;28;20458;-65
2021/09/28 05:27:23;;;;;;;4.20;0.85;;;;;;;21.23;50.94;102178.47;5012436;28;20113;-64
2021/09/28 05:29:48;;;;;;;2.03;0.70;;;;;;;21.22;50.74;102175.94;5011686;28;20030;-64
2021/09/28 05:32:13;;;;;;;2.28;0.65;;;;;;;21.22;50.70;102186.53;5013012;28;20140;-64
2021/09/28 05:34:39;;;;;;;2.15;0.80;;;;;;;21.20;50.60;102187.50;5016077;28;20504;-64
2021/09/28 05:37:05;;;;;;;2.08;0.73;;;;;;;21.22;50.75;102174.16;5015410;28;20025;-64
2021/09/28 05:39:33;;;;;;;2.53;0.93;;;;;;;21.20;50.64;102182.22;5015976;28;20092;-64
2021/09/28 05:41:59;;;;;;;2.58;0.90;;;;;;;21.22;50.58;102191.84;5015581;28;20495;-63
2021/09/28 05:44:24;;;;;;;2.25;0.70;;;;;;;21.23;50.53;102190.88;5015499;28;20030;-65
2021/09/28 05:46:50;;;;;;;2.30;0.77;;;;;;;21.22;50.31;102189.19;5015365;28;20026;-64
2021/09/28 05:52:03;;;;;;;1.85;0.80;;;;;;;21.21;50.33;102198.97;5004297;28;20077;-65
2021/09/28 05:54:28;;;;;;;2.80;0.90;;;;;;;21.20;50.39;102197.25;5015668;28;20061;-64
2021/09/28 05:56:55;;;;;;;4.47;1.10;;;;;;;21.20;50.37;102195.47;5014548;28;20070;-65
2021/09/28 05:59:20;;;;;;;4.85;1.10;;;;;;;21.19;50.55;102196.41;5015409;28;20088;-64
2021/09/28 06:01:47;;;;;;;2.67;0.80;;;;;;;21.19;50.44;102203.53;5015173;28;20021;-64
2021/09/28 06:04:13;;;;;;;2.30;0.90;;;;;;;21.18;50.32;102207.13;5014893;28;20026;-65
2021/09/28 06:06:38;;;;;;;3.08;0.90;;;;;;;21.19;50.38;102206.19;5015359;28;20033;-64
2021/09/28 06:09:04;;;;;;;2.55;0.80;;;;;;;21.19;50.47;102206.19;5013990;28;20454;-65
2021/09/28 06:11:30;;;;;;;4.13;0.88;;;;;;;21.19;50.42;102211.50;5013917;28;20088;-64
2021/09/28 06:13:59;;;;;;;2.60;0.93;;;;;;;21.18;50.21;102207.13;5014996;28;20105;-64
2021/09/28 06:16:24;;;;;;;3.67;0.90;;;;;;;21.17;50.30;102208.94;5015322;28;20025;-64
2021/09/28 06:18:52;;;;;;;3.60;0.82;;;;;;;21.18;50.46;102207.13;5014843;28;20045;-64
2021/09/28 06:21:17;;;;;;;3.75;0.93;;;;;;;21.17;50.40;102208.94;5015455;28;20103;-64
2021/09/28 06:23:42;;;;;;;3.45;1.00;;;;;;;21.18;50.26;102207.13;5015240;28;20026;-63
2021/09/28 06:26:08;;;;;;;3.75;0.80;;;;;;;21.18;50.34;102205.31;5014428;28;20373;-67
2021/09/28 06:28:36;;;;;;;5.03;1.10;;;;;;;21.15;50.48;102208.19;5015102;28;20095;-64
2021/09/28 06:31:01;;;;;;;2.53;0.75;;;;;;;21.10;51.26;102213.00;5014740;28;20492;-65
2021/09/28 06:33:26;;;;;;;1.67;0.70;;;;;;;21.08;51.47;102208.75;5014698;28;20038;-65
2021/09/28 06:35:51;;;;;;;2.20;1.00;;;;;;;21.06;51.59;102219.50;5014269;28;20029;-67
2021/09/28 06:38:17;;;;;;;2.83;0.80;;;;;;;21.07;51.75;102215.03;5014654;28;20109;-67
2021/09/28 06:40:42;;;;;;;2.73;0.80;;;;;;;21.04;52.01;102215.25;5014260;28;20034;-64
2021/09/28 06:43:07;;;;;;;2.83;1.02;;;;;;;21.04;52.15;102215.25;5013926;28;20350;-66
2021/09/28 06:45:34;;;;;;;2.88;0.95;;;;;;;21.03;52.17;102217.06;5014958;28;20026;-65
2021/09/28 06:47:59;;;;;;;3.08;0.88;;;;;;;21.04;52.28;102215.25;5014155;28;20092;-67
2021/09/28 06:50:25;;;;;;;2.35;0.95;;;;;;;21.02;52.52;102220.66;5014269;28;20046;-69
2021/09/28 06:52:50;;;;;;;2.45;0.85;;;;;;;20.99;52.52;102221.72;5014348;28;20446;-63
2021/09/28 06:55:16;;;;;;;1.92;0.75;;;;;;;21.00;52.55;102222.56;5014169;28;20109;-63
2021/09/28 06:57:41;;;;;;;1.80;0.82;;;;;;;21.01;52.35;102224.25;5014282;28;20488;-62
2021/09/28 07:00:07;;;;;;;2.67;0.70;;;;;;;21.01;52.55;102221.59;5013877;28;20475;-63
2021/09/28 07:02:35;;;;;;;3.08;0.90;;;;;;;21.02;52.70;102223.31;5014292;28;20473;-63
2021/09/28 07:05:01;;;;;;;2.40;0.85;;;;;;;21.06;52.55;102214.19;5014014;28;20048;-64
2021/09/28 07:07:29;;;;;;;3.13;1.15;;;;;;;21.11;51.69;102216.47;5013856;28;20474;-63
2021/09/28 07:09:54;;;;;;;2.63;0.80;;;;;;;21.14;52.12;102216.25;5013923;28;20034;-63
2021/09/28 07:12:20;;;;;;;3.88;1.02;;;;;;;21.16;51.34;102239.06;5013937;28;20381;-63
2021/09/28 07:14:45;;;;;;;3.33;1.02;;;;;;;21.17;51.87;102223.97;5013838;28;20022;-64
2021/09/28 07:17:10;;;;;;;3.75;1.10;;;;;;;21.14;52.17;102224.22;5013920;28;20026;-64
2021/09/28 07:19:39;;;;;;;4.55;1.25;;;;;;;21.12;52.51;102226.97;5013904;28;20049;-64
2021/09/28 07:22:04;;;;;;;3.20;1.00;;;;;;;21.13;52.27;102231.31;5013233;28;20041;-64
2021/09/28 07:24:29;;;;;;;3.40;1.30;;;;;;;21.14;52.31;102229.50;5014112;28;20093;-63
2021/09/28 07:27:01;;;;;;;6.13;1.20;;;;;;;21.13;52.56;102228.66;5013307;28;20025;-63
2021/09/28 07:29:26;;;;;;;4.18;1.10;;;;;;;21.16;52.54;102231.09;5013506;28;20029;-63
2021/09/28 07:31:51;;;;;;;3.67;0.82;;;;;;;21.19;52.55;102230.03;5013296;28;20413;-62
2021/09/28 07:34:19;;;;;;;5.28;1.23;;;;;;;21.20;52.58;102231.72;5013764;28;20026;-63
2021/09/28 07:36:45;;;;;;;4.35;1.00;;;;;;;21.20;52.68;102226.41;5013250;28;20026;-63
2021/09/28 07:39:10;;;;;;;3.63;1.30;;;;;;;21.22;52.42;102232.47;5012926;28;20052;-63
2021/09/28 07:41:35;;;;;;;4.13;0.97;;;;;;;21.26;52.14;102233.94;5014112;28;20466;-64
2021/09/28 07:44:04;;;;;;;2.63;1.00;;;;;;;21.29;52.25;102232.88;5013159;28;20295;-64
2021/09/28 07:46:29;;;;;;;3.45;1.02;;;;;;;21.33;51.90;102229.00;5013693;28;20275;-62
2021/09/28 07:48:54;;;;;;;3.13;1.00;;;;;;;21.37;52.17;102233.16;5013094;28;20024;-63
2021/09/28 07:51:20;;;;;;;3.30;0.90;;;;;;;21.40;52.20;102230.28;5013051;28;20112;-62
2021/09/28 07:53:49;;;;;;;3.40;1.15;;;;;;;21.39;52.03;102228.56;5013247;28;20068;-64
2021/09/28 07:56:16;;;;;;;3.65;1.00;;;;;;;21.40;52.12;102234.75;5012678;28;20036;-63
2021/09/28 07:58:44;;;;;;;4.03;1.23;;;;;;;21.40;51.92;102230.28;5013633;28;20026;-65
2021/09/28 08:01:09;;;;;;;3.33;1.02;;;;;;;21.42;52.12;102232.81;5013090;28;20025;-63
2021/09/28 08:03:35;;;;;;;3.00;0.98;;;;;;;21.44;52.08;102234.38;5013047;28;20037;-63
2021/09/28 08:06:00;;;;;;;2.80;1.05;;;;;;;21.44;51.75;102236.19;5013034;28;20385;-63
2021/09/28 08:08:25;;;;;;;3.08;0.93;;;;;;;21.40;51.98;102235.56;5012904;28;20033;-63
2021/09/28 08:10:50;;;;;;;3.85;1.13;;;;;;;21.40;52.05;102235.56;5012409;28;20128;-64
2021/09/28 08:13:16;;;;;;;3.28;1.10;;;;;;;21.40;52.09;102240.03;5013358;28;20061;-63
2021/09/28 08:15:42;;;;;;;2.90;1.00;;;;;;;21.38;52.35;102238.34;5012974;28;20080;-63
2021/09/28 08:18:07;;;;;;;4.47;1.38;;;;;;;21.40;52.29;102248.00;5012172;28;20034;-63
2021/09/28 08:20:33;;;;;;;2.83;1.00;;;;;;;21.38;52.20;102245.47;5013034;28;20140;-63
2021/09/28 08:23:01;;;;;;;4.47;1.50;;;;;;;21.38;52.28;102245.47;5012446;28;20040;-62
2021/09/28 08:25:37;;;;;;;2.95;1.02;;;;;;;21.37;52.30;102243.75;5012922;28;20036;-64
2021/09/28 08:30:46;;;;;;;4.15;1.10;;;;;;;21.37;52.48;102247.25;5012818;28;20401;-63
2021/09/28 08:33:13;;;;;;;5.25;1.25;;;;;;;21.40;52.45;102243.53;5011901;28;20018;-63
2021/09/28 08:35:38;;;;;;;4.40;1.15;;;;;;;21.41;52.31;102239.91;5017376;28;20021;-63
2021/09/28 08:38:03;;;;;;;3.75;1.20;;;;;;;21.43;52.19;102242.44;5030347;28;20025;-64
2021/09/28 08:40:29;;;;;;;4.03;1.10;;;;;;;21.48;52.23;102240.31;5031463;28;20396;-64
2021/09/28 08:42:56;;;;;;;2.58;0.90;;;;;;;21.48;52.23;102242.97;5031293;28;20289;-63
2021/09/28 08:45:24;;;;;;;3.08;1.02;;;;;;;21.47;52.24;102244.75;5032259;28;20037;-62
2021/09/28 08:47:50;;;;;;;3.72;1.10;;;;;;;21.46;52.25;102245.72;5031749;28;20429;-63
2021/09/28 08:50:19;;;;;;;3.92;1.15;;;;;;;21.48;52.51;102232.38;5031541;28;20092;-64
2021/09/28 08:52:47;;;;;;;4.13;1.10;;;;;;;21.49;52.53;102232.28;5031712;28;20036;-62
2021/09/28 08:55:12;;;;;;;2.78;1.00;;;;;;;21.51;52.57;102237.47;5032392;28;20048;-64
2021/09/28 08:57:39;;;;;;;3.75;1.25;;;;;;;21.51;52.44;102237.47;5032190;28;20425;-63
2021/09/28 09:00:16;;;;;;;4.25;1.33;;;;;;;21.51;52.14;102235.66;5031082;28;20489;-63
2021/09/28 09:02:44;;;;;;;2.78;1.02;;;;;;;21.52;52.20;102233.84;5032054;28;20045;-63
2021/09/28 09:05:14;;;;;;;4.38;1.13;;;;;;;21.52;52.36;102231.19;5032157;28;20163;-63
2021/09/28 09:07:40;;;;;;;2.58;1.00;;;;;;;21.51;52.63;102234.81;5034881;28;20488;-65
2021/09/28 09:10:07;;;;;;;4.07;1.10;;;;;;;21.55;52.58;102238.91;5024166;28;20452;-67
2021/09/28 09:12:41;;;;;;;3.90;1.33;;;;;;;21.61;52.33;102235.81;5035598;28;20481;-68
2021/09/28 09:15:25;;;;;;;5.82;1.20;;;;;;;21.71;52.12;102235.97;5034383;28;20034;-66
2021/09/28 09:17:53;;;;;;;2.60;0.90;;;;;;;21.73;51.99;102236.72;5034217;28;20557;-66
2021/09/28 09:20:26;;;;;;;2.78;1.25;;;;;;;21.74;51.84;102236.59;5034586;28;20457;-68
2021/09/28 09:22:53;;;;;;;4.78;1.20;;;;;;;21.76;51.97;102230.31;5033138;28;20064;-68
2021/09/28 09:25:23;;;;;;;2.53;1.00;;;;;;;21.76;51.37;102236.47;5034666;28;20038;-68
2021/09/28 09:27:49;;;;;;;2.88;0.95;;;;;;;21.80;51.22;102229.97;5033560;28;20029;-66
2021/09/28 09:30:19;;;;;;;4.05;0.90;;;;;;;21.85;51.01;102222.50;5033411;28;20477;-66
2021/09/28 09:32:55;;;;;;;4.07;1.13;;;;;;;21.88;51.18;102224.94;5033751;28;20038;-70
2021/09/28 09:35:29;;;;;;;3.83;0.90;;;;;;;21.97;51.24;102226.06;5034141;28;20069;-70
2021/09/28 09:38:04;;;;;;;4.00;1.10;;;;;;;22.03;51.00;102225.59;5033518;28;20535;-71
2021/09/28 09:40:43;;;;;;;2.75;0.90;;;;;;;22.06;50.94;102216.53;5035290;28;20038;-66
2021/09/28 09:43:13;;;;;;;3.75;0.90;;;;;;;22.07;50.79;102219.06;5032776;28;20179;-68
2021/09/28 09:45:39;;;;;;;3.72;0.93;;;;;;;22.09;50.80;102217.13;5034396;28;20480;-64
2021/09/28 09:48:25;;;;;;;3.30;1.02;;;;;;;22.12;50.64;102216.06;5034126;28;20056;-65
2021/09/28 09:51:14;;;;;;;5.57;1.30;;;;;;;22.16;50.61;102216.66;5032889;28;20060;-65
2021/09/28 09:54:04;;;;;;;5.57;1.38;;;;;;;22.17;50.69;102223.69;5032635;28;20021;-73
2021/09/28 09:56:47;;;;;;;3.92;1.20;;;;;;;22.14;50.42;102219.44;5033825;28;20055;-69
2021/09/28 09:59:13;;;;;;;4.22;0.98;;;;;;;22.12;49.92;102210.75;5033838;28;20025;-64
2021/09/28 10:01:38;;;;;;;4.63;1.20;;;;;;;22.14;50.08;102202.66;5033301;28;20128;-61
2021/09/28 10:04:14;;;;;;;3.90;0.90;;;;;;;22.16;49.68;102204.25;5033097;28;20116;-61
2021/09/28 10:06:40;;;;;;;4.15;0.90;;;;;;;22.19;49.59;102205.81;5035043;28;20100;-70
2021/09/28 10:09:22;;;;;;;5.00;1.20;;;;;;;22.20;49.36;102203.03;5035083;28;20493;-68
2021/09/28 10:12:00;;;;;;;5.25;1.30;;;;;;;22.22;49.72;102206.44;5034469;28;20025;-65
2021/09/28 10:14:35;;;;;;;3.90;1.02;;;;;;;22.23;50.10;102205.47;5019812;28;20049;-64
2021/09/28 10:17:26;;;;;;;4.60;1.13;;;;;;;22.24;50.22;102211.63;5014882;28;20065;-68
2021/09/28 10:19:53;;;;;;;6.97;1.42;;;;;;;22.24;50.24;102201.84;5008027;28;20041;-68
2021/09/28 10:22:33;;;;;;;5.28;1.10;;;;;;;22.27;50.61;102198.09;5012993;28;20061;-69
2021/09/28 10:25:26;;;;;;;5.47;1.27;;;;;;;22.28;50.49;102189.16;5026953;28;20160;-69
2021/09/28 10:27:53;;;;;;;6.10;1.13;;;;;;;22.28;50.16;102197.97;5031619;28;20068;-68
2021/09/28 10:30:30;;;;;;;7.50;1.58;;;;;;;22.31;50.33;102185.47;5034706;28;20026;-66
2021/09/28 10:32:56;;;;;;;3.88;0.95;;;;;;;22.30;50.45;102184.59;5032480;28;20128;-67
2021/09/28 10:35:22;;;;;;;4.07;1.15;;;;;;;22.33;50.56;102179.06;5032797;28;20434;-66
2021/09/28 10:37:53;;;;;;;4.45;0.93;;;;;;;22.36;50.45;102181.47;5034680;28;20492;-67
2021/09/28 10:40:21;;;;;;;5.07;0.90;;;;;;;22.38;50.58;102182.22;5034346;28;20029;-69
2021/09/28 10:43:06;;;;;;;4.82;1.50;;;;;;;22.38;50.50;102174.25;5034339;28;20481;-68
2021/09/28 10:45:31;;;;;;;3.88;1.00;;;;;;;22.39;50.61;102175.09;5034324;28;20175;-66
2021/09/28 10:48:07;;;;;;;4.57;1.10;;;;;;;22.38;50.35;102166.28;5029290;28;20265;-70
2021/09/28 10:50:36;;;;;;;4.18;1.02;;;;;;;22.40;50.67;102161.69;5032174;28;20497;-66
2021/09/28 10:53:27;;;;;;;4.72;0.90;;;;;;;22.41;50.79;102157.22;5032201;28;20030;-66
2021/09/28 10:56:01;;;;;;;5.75;1.23;;;;;;;22.42;50.75;102156.25;5033046;28;20045;-63
2021/09/28 10:58:28;;;;;;;3.15;1.00;;;;;;;22.45;50.35;102148.88;5034269;28;20645;-68
2021/09/28 11:00:54;;;;;;;5.07;1.08;;;;;;;22.45;50.23;102142.72;5033426;28;20048;-68
2021/09/28 11:03:41;;;;;;;4.07;0.90;;;;;;;22.46;50.44;102141.75;5033841;28;20029;-68
2021/09/28 11:06:07;;;;;;;3.97;1.05;;;;;;;22.46;50.30;102147.94;5024305;28;20286;-69
2021/09/28 11:08:36;;;;;;;5.32;1.52;;;;;;;22.43;50.28;102141.97;5018009;28;20026;-69
2021/09/28 11:11:07;;;;;;;3.72;1.05;;;;;;;22.39;50.36;102136.09;5012555;28;20049;-68
2021/09/28 11:13:35;;;;;;;5.75;1.27;;;;;;;22.32;50.81;102137.56;5012707;28;20021;-69
2021/09/28 11:16:07;;;;;;;3.22;0.90;;;;;;;22.26;50.81;102132.69;5012540;28;20572;-67
2021/09/28 11:18:32;;;;;;;4.93;1.17;;;;;;;22.24;50.70;102135.47;5013228;28;20145;-65
2021/09/28 11:21:09;;;;;;;4.78;1.00;;;;;;;22.23;50.46;102136.41;5012270;28;20116;-65
2021/09/28 11:23:35;;;;;;;3.53;0.95;;;;;;;22.24;50.57;102130.16;5013415;28;20113;-64
2021/09/28 11:26:00;;;;;;;2.92;0.90;;;;;;;22.27;50.62;102121.94;5013292;28;20045;-64
2021/09/28 11:28:25;;;;;;;3.40;1.00;;;;;;;22.30;50.34;102134.16;5012795;28;20025;-63
2021/09/28 11:30:54;;;;;;;4.00;1.05;;;;;;;22.32;50.06;102123.41;5011906;28;20037;-65